Time;durP1;ratioP1;P1;durP2;ratioP2;P2;SDS_P1;SDS_P2;PMS_P1;PMS_P2;Temp;Humidity;BMP_temperature;BMP_pressure;BME280_temperature;BME280_humidity;BME280_pressure;Samples;Min_cycle;Max_cycle;Signal;HPM_P1;HPM_P2
2021/10/20 00:00:20;;;;;;;11.43;5.20;;;;;;;;;;10276015;28;20521;-62
2021/10/20 00:05:18;;;;;;;10.52;5.57;;;;;;;;;;10283849;28;20419;-64
2021/10/20 00:10:16;;;;;;;13.80;5.47;;;;;;;;;;10271540;28;20057;-64
2021/10/20 00:15:14;;;;;;;;;;;;;;;;;;10292150;28;20519;-64
2021/10/20 00:20:15;;;;;;;11.02;5.47;;;;;;;;;;10286522;28;19944;-65
2021/10/20 00:25:14;;;;;;;18.67;6.30;;;;;;;;;;10291905;28;20116;-64
2021/10/20 00:30:12;;;;;;;8.40;4.85;;;;;;;;;;10292806;28;20018;-64
2021/10/20 00:35:09;;;;;;;;;;;;;;;;;;10294889;28;20109;-64
2021/10/20 00:40:08;;;;;;;9.88;6.75;;;;;;;;;;10281272;28;20000;-64
2021/10/20 00:45:06;;;;;;;10.55;5.25;;;;;;;;;;10282551;28;20030;-64
2021/10/20 00:50:06;;;;;;;13.60;6.35;;;;;;;;;;10294981;28;20033;-64
2021/10/20 00:55:04;;;;;;;13.52;6.88;;;;;;;;;;10295205;28;20549;-64
2021/10/20 01:00:04;;;;;;;11.98;6.03;;;;;;;;;;10290469;28;20469;-63
2021/10/20 01:05:03;;;;;;;11.25;5.47;;;;;;;;;;10291621;28;20017;-64
2021/10/20 01:10:00;;;;;;;18.25;6.35;;;;;;;;;;10294581;28;20040;-64
2021/10/20 01:14:57;;;;;;;11.37;5.10;;;;;;;;;;10286121;28;20036;-64
2021/10/20 01:19:56;;;;;;;8.10;5.03;;;;;;;;;;10277668;28;20061;-65
2021/10/20 01:24:54;;;;;;;9.02;5.93;;;;;;;;;;10281463;28;20116;-63
2021/10/20 01:29:51;;;;;;;9.57;5.73;;;;;;;;;;10284916;28;20124;-64
2021/10/20 01:34:49;;;;;;;13.23;5.60;;;;;;;;;;10289232;28;21273;-65
2021/10/20 01:39:46;;;;;;;5.53;4.30;;;;;;;;;;10289608;28;20493;-63
2021/10/20 01:44:44;;;;;;;8.03;4.97;;;;;;;;;;10290116;28;20081;-64
2021/10/20 01:49:41;;;;;;;6.73;3.67;;;;;;;;;;10274017;28;20087;-64
2021/10/20 01:54:39;;;;;;;8.83;5.40;;;;;;;;;;10277005;28;20805;-62
2021/10/20 01:59:36;;;;;;;8.60;4.53;;;;;;;;;;10286421;28;20034;-64
2021/10/20 02:04:35;;;;;;;10.60;6.13;;;;;;;;;;10299109;28;20422;-65
2021/10/20 02:09:33;;;;;;;13.30;6.63;;;;;;;;;;10284517;28;20042;-64
2021/10/20 02:14:30;;;;;;;11.23;4.87;;;;;;;;;;10286155;28;20088;-64
2021/10/20 02:19:27;;;;;;;10.13;4.10;;;;;;;;;;10298934;28;20539;-64
2021/10/20 02:24:25;;;;;;;5.23;3.47;;;;;;;;;;10302798;28;20564;-65
2021/10/20 02:29:22;;;;;;;9.93;5.63;;;;;;;;;;10282780;28;20045;-65
2021/10/20 02:34:20;;;;;;;9.30;4.07;;;;;;;;;;10298618;28;20072;-66
2021/10/20 02:39:18;;;;;;;6.40;3.45;;;;;;;;;;10296544;28;20057;-65
2021/10/20 02:44:15;;;;;;;11.53;7.00;;;;;;;;;;10302775;28;20120;-66
2021/10/20 02:49:12;;;;;;;5.10;3.70;;;;;;;;;;10288190;28;20030;-65
2021/10/20 02:54:10;;;;;;;8.57;4.37;;;;;;;;;;10291307;28;20049;-64
2021/10/20 02:59:07;;;;;;;12.10;6.03;;;;;;;;;;10287744;28;20140;-65
2021/10/20 03:04:05;;;;;;;7.63;4.70;;;;;;;;;;10301016;28;20042;-65
2021/10/20 03:09:02;;;;;;;6.95;3.75;;;;;;;;;;10303545;28;20033;-66
2021/10/20 03:14:00;;;;;;;6.73;4.67;;;;;;;;;;10307750;28;20103;-64
2021/10/20 03:18:57;;;;;;;8.50;5.20;;;;;;;;;;10307967;28;20026;-65
2021/10/20 03:23:55;;;;;;;9.50;5.37;;;;;;;;;;10307014;28;20083;-65
2021/10/20 03:28:52;;;;;;;6.67;3.67;;;;;;;;;;10270255;28;20042;-63
2021/10/20 03:33:49;;;;;;;6.73;3.87;;;;;;;;;;10264944;28;20491;-65
2021/10/20 03:38:47;;;;;;;6.03;3.77;;;;;;;;;;10299502;28;20041;-66
2021/10/20 03:43:44;;;;;;;8.97;4.93;;;;;;;;;;10275784;28;20049;-63
2021/10/20 03:48:42;;;;;;;12.57;4.40;;;;;;;;;;10279150;28;20041;-65
2021/10/20 03:53:39;;;;;;;7.03;4.10;;;;;;;;;;10297232;28;20040;-66
2021/10/20 03:58:36;;;;;;;6.30;3.30;;;;;;;;;;10305602;28;20041;-66
2021/10/20 04:03:36;;;;;;;8.30;5.40;;;;;;;;;;10307009;28;20041;-63
2021/10/20 04:08:33;;;;;;;5.63;3.35;;;;;;;;;;10271027;28;20163;-62
2021/10/20 04:13:30;;;;;;;7.03;3.67;;;;;;;;;;10286611;28;20476;-66
2021/10/20 04:18:28;;;;;;;7.80;4.03;;;;;;;;;;10261264;28;20037;-65
2021/10/20 04:23:26;;;;;;;;;;;;;;;;;;10248365;28;20510;-62
2021/10/20 04:28:23;;;;;;;8.15;4.43;;;;;;;;;;10241135;28;19925;-66
2021/10/20 04:33:21;;;;;;;5.30;3.17;;;;;;;;;;10272442;28;20037;-63
2021/10/20 04:38:18;;;;;;;6.63;3.57;;;;;;;;;;10245088;28;20048;-63
2021/10/20 04:43:16;;;;;;;7.13;2.80;;;;;;;;;;10254151;28;20030;-63
2021/10/20 04:48:13;;;;;;;7.60;3.60;;;;;;;;;;10263516;28;20033;-66
2021/10/20 04:53:10;;;;;;;4.87;2.43;;;;;;;;;;10272354;28;20040;-65
2021/10/20 04:58:08;;;;;;;5.17;3.33;;;;;;;;;;10269532;28;20997;-63
2021/10/20 05:03:05;;;;;;;5.97;2.47;;;;;;;;;;10282752;28;20061;-64
2021/10/20 05:08:03;;;;;;;3.87;3.23;;;;;;;;;;10277351;28;20107;-63
2021/10/20 05:13:01;;;;;;;6.63;4.03;;;;;;;;;;10273173;28;20037;-65
2021/10/20 05:17:58;;;;;;;5.97;3.37;;;;;;;;;;10270985;28;20126;-62
2021/10/20 05:22:55;;;;;;;5.40;3.30;;;;;;;;;;10275202;28;20426;-64
2021/10/20 05:27:53;;;;;;;9.07;4.50;;;;;;;;;;10285667;28;20039;-64
2021/10/20 05:32:50;;;;;;;7.17;4.70;;;;;;;;;;10283299;28;20041;-63
2021/10/20 05:37:50;;;;;;;6.20;3.40;;;;;;;;;;10272491;28;20044;-63
2021/10/20 05:42:47;;;;;;;6.95;3.92;;;;;;;;;;10283629;28;20030;-62
2021/10/20 05:47:45;;;;;;;11.60;5.10;;;;;;;;;;10283388;28;20513;-62
2021/10/20 05:52:42;;;;;;;6.70;4.10;;;;;;;;;;10286629;28;20041;-63
2021/10/20 05:57:40;;;;;;;13.35;4.78;;;;;;;;;;10286881;28;20029;-64
2021/10/20 06:02:38;;;;;;;8.33;4.47;;;;;;;;;;10274837;28;20033;-64
2021/10/20 06:07:39;;;;;;;7.90;4.43;;;;;;;;;;10285803;28;20490;-63
2021/10/20 06:12:37;;;;;;;8.55;4.95;;;;;;;;;;10283478;28;20076;-64
2021/10/20 06:17:35;;;;;;;11.20;5.32;;;;;;;;;;10287441;28;20084;-63
2021/10/20 06:22:33;;;;;;;8.90;3.92;;;;;;;;;;10270762;28;20566;-62
2021/10/20 06:27:30;;;;;;;6.68;4.32;;;;;;;;;;10283002;28;20406;-63
2021/10/20 06:32:28;;;;;;;8.20;3.83;;;;;;;;;;10283841;28;20527;-63
2021/10/20 06:37:27;;;;;;;7.23;4.00;;;;;;;;;;10273679;28;20506;-64
2021/10/20 06:42:24;;;;;;;10.57;4.50;;;;;;;;;;10278064;28;20041;-64
2021/10/20 06:47:22;;;;;;;9.60;5.10;;;;;;;;;;10290805;28;20037;-63
2021/10/20 06:52:20;;;;;;;9.25;4.68;;;;;;;;;;10291947;28;20073;-62
2021/10/20 06:57:17;;;;;;;10.70;4.57;;;;;;;;;;10288781;28;20041;-63
2021/10/20 07:02:14;;;;;;;11.80;5.03;;;;;;;;;;10289816;28;20037;-64
2021/10/20 07:07:13;;;;;;;8.07;4.07;;;;;;;;;;10291268;28;20037;-63
2021/10/20 07:12:10;;;;;;;8.43;4.40;;;;;;;;;;10282622;28;20095;-64
2021/10/20 07:17:09;;;;;;;7.77;3.70;;;;;;;;;;10287382;28;20086;-64
2021/10/20 07:22:06;;;;;;;;;;;;;;;;;;10288598;28;20056;-64
2021/10/20 07:27:04;;;;;;;8.07;5.73;;;;;;;;;;10291711;28;19924;-61
2021/10/20 07:32:01;;;;;;;15.23;7.70;;;;;;;;;;10283249;28;20045;-63
2021/10/20 07:36:58;;;;;;;13.23;7.80;;;;;;;;;;10279071;28;20033;-64
2021/10/20 07:41:56;;;;;;;13.50;7.93;;;;;;;;;;10293783;28;20125;-64
2021/10/20 07:46:53;;;;;;;14.67;7.17;;;;;;;;;;10277835;28;20033;-62
2021/10/20 07:51:56;;;;;;;9.67;4.67;;;;;;;;;;10273302;28;20033;-64
2021/10/20 07:56:53;;;;;;;12.45;6.55;;;;;;;;;;10288587;28;20045;-63
2021/10/20 08:01:51;;;;;;;10.97;5.70;;;;;;;;;;10275419;28;20045;-63
2021/10/20 08:06:48;;;;;;;15.13;6.70;;;;;;;;;;10272011;28;20037;-63
2021/10/20 08:11:46;;;;;;;16.17;7.40;;;;;;;;;;10280075;28;20045;-62
2021/10/20 08:16:44;;;;;;;17.50;7.33;;;;;;;;;;10293678;28;20140;-64
2021/10/20 08:21:41;;;;;;;15.20;5.83;;;;;;;;;;10254102;28;20124;-63
2021/10/20 08:26:39;;;;;;;8.07;4.70;;;;;;;;;;10276871;28;20034;-62
2021/10/20 08:31:36;;;;;;;12.63;5.57;;;;;;;;;;10277742;28;20128;-64
2021/10/20 08:36:34;;;;;;;9.00;5.30;;;;;;;;;;10279143;28;20041;-62
2021/10/20 08:41:31;;;;;;;8.23;5.37;;;;;;;;;;10279640;28;20108;-63
2021/10/20 08:46:29;;;;;;;8.80;3.83;;;;;;;;;;10280770;28;20045;-62
2021/10/20 08:51:26;;;;;;;15.33;5.30;;;;;;;;;;10276167;28;20464;-62
2021/10/20 08:56:24;;;;;;;9.43;6.00;;;;;;;;;;10265836;28;20045;-58
2021/10/20 09:01:22;;;;;;;9.48;6.05;;;;;;;;;;10266716;28;21267;-62
2021/10/20 09:06:20;;;;;;;10.43;5.45;;;;;;;;;;10255070;28;20033;-62
2021/10/20 09:11:18;;;;;;;11.33;6.30;;;;;;;;;;10285774;28;20472;-62
2021/10/20 09:16:15;;;;;;;;;;;;;;;;;;10285560;28;20604;-62
2021/10/20 09:21:13;;;;;;;11.82;5.80;;;;;;;;;;10279507;28;19917;-62
2021/10/20 09:26:10;;;;;;;11.40;5.23;;;;;;;;;;10286298;28;20160;-63
2021/10/20 09:31:08;;;;;;;10.27;5.47;;;;;;;;;;10280326;28;20042;-63
2021/10/20 09:36:07;;;;;;;6.43;3.28;;;;;;;;;;10281275;28;20036;-64
2021/10/20 09:41:06;;;;;;;8.48;4.32;;;;;;;;;;10258856;28;20029;-63
2021/10/20 09:46:04;;;;;;;6.60;3.58;;;;;;;;;;10275838;28;20041;-62
2021/10/20 09:51:08;;;;;;;9.13;3.83;;;;;;;;;;10284565;28;20046;-64
2021/10/20 09:56:26;;;;;;;7.28;4.43;;;;;;;;;;10270555;28;20380;-64
2021/10/20 10:01:26;;;;;;;7.22;3.47;;;;;;;;;;10269710;28;20029;-63
2021/10/20 10:06:23;;;;;;;10.73;5.07;;;;;;;;;;10261282;28;20049;-64
2021/10/20 10:11:39;;;;;;;64.65;23.77;;;;;;;;;;10386075;27;20239;-65
2021/10/20 10:16:39;;;;;;;27.23;18.77;;;;;;;;;;10339465;28;20033;-65
2021/10/20 10:21:40;;;;;;;13.98;10.45;;;;;;;;;;10362125;28;20044;-66
2021/10/20 10:26:57;;;;;;;26.63;13.60;;;;;;;;;;10359489;28;20041;-66
2021/10/20 10:31:57;;;;;;;19.85;9.20;;;;;;;;;;10336025;28;20037;-63
2021/10/20 10:36:58;;;;;;;22.25;9.73;;;;;;;;;;10336971;28;20086;-64
2021/10/20 10:42:02;;;;;;;18.42;8.25;;;;;;;;;;10336109;28;20041;-63
2021/10/20 10:47:04;;;;;;;19.85;6.95;;;;;;;;;;10318415;28;20048;-67
2021/10/20 10:52:01;;;;;;;17.77;7.47;;;;;;;;;;10335216;28;20121;-64
2021/10/20 10:57:09;;;;;;;22.60;7.17;;;;;;;;;;10331129;28;20574;-67
2021/10/20 11:02:26;;;;;;;7.32;4.78;;;;;;;;;;10333828;28;20060;-65
2021/10/20 11:07:25;;;;;;;8.88;5.28;;;;;;;;;;10335536;28;20499;-68
2021/10/20 11:12:26;;;;;;;12.38;4.45;;;;;;;;;;10336503;28;20529;-67
2021/10/20 11:17:24;;;;;;;9.05;3.70;;;;;;;;;;10330912;28;20052;-67
2021/10/20 11:22:22;;;;;;;8.20;4.00;;;;;;;;;;10288004;28;20049;-63
2021/10/20 11:27:24;;;;;;;4.68;2.85;;;;;;;;;;10280301;28;20046;-68
2021/10/20 11:32:22;;;;;;;7.43;4.10;;;;;;;;;;10280606;28;20045;-64
2021/10/20 11:37:19;;;;;;;;;;;;;;;;;;10281508;28;20041;-66
2021/10/20 11:42:16;;;;;;;5.07;3.20;;;;;;;;;;10304748;28;19968;-66
2021/10/20 11:47:15;;;;;;;9.20;4.47;;;;;;;;;;10305235;28;20107;-68
2021/10/20 11:52:13;;;;;;;8.23;3.70;;;;;;;;;;10292637;28;20034;-67
2021/10/20 11:57:12;;;;;;;5.32;2.42;;;;;;;;;;10299855;28;20060;-67
2021/10/20 12:02:09;;;;;;;4.10;2.88;;;;;;;;;;10288807;28;20438;-63
2021/10/20 12:07:08;;;;;;;5.60;3.73;;;;;;;;;;10293694;28;20195;-67
2021/10/20 12:12:05;;;;;;;5.57;2.65;;;;;;;;;;10318632;28;20800;-67
2021/10/20 12:17:05;;;;;;;6.60;2.83;;;;;;;;;;10318671;28;20416;-68
2021/10/20 12:22:20;;;;;;;4.07;3.20;;;;;;;;;;10302483;28;20046;-67
2021/10/20 12:27:19;;;;;;;5.75;3.50;;;;;;;;;;10320853;28;20059;-66
2021/10/20 12:32:18;;;;;;;5.13;3.17;;;;;;;;;;10304013;28;20133;-67
2021/10/20 12:37:16;;;;;;;12.00;3.50;;;;;;;;;;10305870;28;20075;-67
2021/10/20 12:42:14;;;;;;;10.20;3.90;;;;;;;;;;10315905;28;20043;-66
2021/10/20 12:47:11;;;;;;;2.80;2.47;;;;;;;;;;10318468;28;20047;-63
2021/10/20 12:52:09;;;;;;;6.67;3.23;;;;;;;;;;10314721;28;20030;-65
2021/10/20 12:57:06;;;;;;;5.23;3.53;;;;;;;;;;10310675;28;20034;-64
2021/10/20 13:02:05;;;;;;;4.37;2.93;;;;;;;;;;10302335;28;20439;-65
2021/10/20 13:07:02;;;;;;;7.53;3.28;;;;;;;;;;10323327;28;20045;-60
2021/10/20 13:11:59;;;;;;;4.63;3.43;;;;;;;;;;10330775;28;20032;-62
2021/10/20 13:16:57;;;;;;;5.90;4.63;;;;;;;;;;10331728;28;20039;-61
2021/10/20 13:21:54;;;;;;;7.10;3.80;;;;;;;;;;10336287;28;20031;-62
2021/10/20 13:26:52;;;;;;;5.80;3.77;;;;;;;;;;10330726;28;20164;-62
2021/10/20 13:31:50;;;;;;;5.38;3.55;;;;;;;;;;10323889;28;20462;-62
2021/10/20 13:36:48;;;;;;;9.33;4.83;;;;;;;;;;10330785;28;20025;-63
2021/10/20 13:41:45;;;;;;;5.40;3.50;;;;;;;;;;10326177;28;20370;-62
2021/10/20 13:46:43;;;;;;;4.97;3.80;;;;;;;;;;10325204;28;20017;-65
2021/10/20 13:51:40;;;;;;;11.57;3.87;;;;;;;;;;10325219;28;20429;-64
2021/10/20 13:56:37;;;;;;;8.87;4.83;;;;;;;;;;10322262;28;20120;-67
2021/10/20 14:01:35;;;;;;;7.30;2.97;;;;;;;;;;10335638;28;20123;-63
2021/10/20 14:06:32;;;;;;;5.43;4.07;;;;;;;;;;10331560;28;20029;-64
2021/10/20 14:11:30;;;;;;;5.30;3.50;;;;;;;;;;10335816;28;20078;-64
2021/10/20 14:16:27;;;;;;;5.47;2.73;;;;;;;;;;10331350;28;20123;-63
2021/10/20 14:21:25;;;;;;;4.73;2.03;;;;;;;;;;10335795;28;20041;-66
2021/10/20 14:26:22;;;;;;;4.60;3.00;;;;;;;;;;10332303;28;20253;-65
2021/10/20 14:31:20;;;;;;;7.70;3.07;;;;;;;;;;10337446;28;20491;-65
2021/10/20 14:36:17;;;;;;;6.90;3.47;;;;;;;;;;10333453;28;20039;-66
2021/10/20 14:41:15;;;;;;;9.00;3.27;;;;;;;;;;10336849;28;21455;-63
2021/10/20 14:46:12;;;;;;;5.47;2.97;;;;;;;;;;10332480;28;20053;-63
2021/10/20 14:51:13;;;;;;;9.68;3.55;;;;;;;;;;10330049;28;20045;-65
2021/10/20 14:56:10;;;;;;;5.67;3.77;;;;;;;;;;10337308;28;20041;-67
2021/10/20 15:01:08;;;;;;;7.10;3.37;;;;;;;;;;10339710;28;20036;-65
2021/10/20 15:06:11;;;;;;;7.03;4.27;;;;;;;;;;10342148;28;20041;-63
2021/10/20 15:11:09;;;;;;;5.97;3.53;;;;;;;;;;10346918;28;20408;-64
2021/10/20 15:16:07;;;;;;;5.45;3.03;;;;;;;;;;10318544;28;20052;-66
2021/10/20 15:21:07;;;;;;;7.17;2.37;;;;;;;;;;10341307;28;20051;-68
2021/10/20 15:26:04;;;;;;;11.95;3.47;;;;;;;;;;10342164;28;20107;-65
2021/10/20 15:31:02;;;;;;;5.50;3.27;;;;;;;;;;10335594;28;20136;-64
2021/10/20 15:35:59;;;;;;;6.83;3.30;;;;;;;;;;10340274;28;20275;-67
2021/10/20 15:40:58;;;;;;;7.57;3.65;;;;;;;;;;10319037;28;20036;-64
2021/10/20 15:45:56;;;;;;;3.57;2.07;;;;;;;;;;10329570;28;20033;-68
2021/10/20 15:50:53;;;;;;;4.90;2.93;;;;;;;;;;10332924;28;20041;-64
2021/10/20 15:55:51;;;;;;;3.73;2.13;;;;;;;;;;10339183;28;20025;-70
2021/10/20 16:00:50;;;;;;;6.75;3.55;;;;;;;;;;10334093;28;20037;-64
2021/10/20 16:05:47;;;;;;;2.70;2.23;;;;;;;;;;10335708;28;20291;-65
2021/10/20 16:10:44;;;;;;;3.00;2.63;;;;;;;;;;10330178;28;20032;-64
2021/10/20 16:15:43;;;;;;;3.43;2.00;;;;;;;;;;10323947;28;20017;-66
2021/10/20 16:20:40;;;;;;;;;;;;;;;;;;10324180;28;20047;-65
2021/10/20 16:25:38;;;;;;;4.65;1.73;;;;;;;;;;10329930;28;20345;-66
2021/10/20 16:30:36;;;;;;;3.60;2.40;;;;;;;;;;10325810;28;20108;-64
2021/10/20 16:35:34;;;;;;;3.13;2.42;;;;;;;;;;10325613;28;20067;-66
2021/10/20 16:40:31;;;;;;;3.97;2.53;;;;;;;;;;10289489;28;20538;-67
2021/10/20 16:45:29;;;;;;;3.27;2.23;;;;;;;;;;10306449;28;20436;-64
2021/10/20 16:50:27;;;;;;;5.63;2.58;;;;;;;;;;10306649;28;20037;-68
2021/10/20 16:55:24;;;;;;;2.73;1.93;;;;;;;;;;10306654;28;20057;-66
2021/10/20 17:00:22;;;;;;;5.33;2.73;;;;;;;;;;10301163;28;20033;-64
2021/10/20 17:05:19;;;;;;;4.00;3.30;;;;;;;;;;10305826;28;20462;-66
2021/10/20 17:10:18;;;;;;;9.23;2.27;;;;;;;;;;10301738;28;20309;-68
2021/10/20 17:15:21;;;;;;;6.13;2.72;;;;;;;;;;10300175;28;20491;-67
2021/10/20 17:20:18;;;;;;;2.65;1.88;;;;;;;;;;10305046;28;20095;-68
2021/10/20 17:25:16;;;;;;;6.95;2.42;;;;;;;;;;10304925;28;20032;-66
2021/10/20 17:30:14;;;;;;;7.07;3.85;;;;;;;;;;10288472;28;20041;-68
2021/10/20 17:35:13;;;;;;;4.82;3.28;;;;;;;;;;10324614;28;20036;-68
2021/10/20 17:40:11;;;;;;;4.93;2.47;;;;;;;;;;10289504;28;20049;-65
2021/10/20 17:45:10;;;;;;;5.45;3.10;;;;;;;;;;10282674;28;20051;-68
2021/10/20 17:50:09;;;;;;;6.97;3.95;;;;;;;;;;10284037;28;20041;-65
2021/10/20 17:55:07;;;;;;;5.78;3.67;;;;;;;;;;10316357;28;20045;-66
2021/10/20 18:00:06;;;;;;;5.20;2.35;;;;;;;;;;10328307;28;20037;-68
2021/10/20 18:05:10;;;;;;;6.50;3.67;;;;;;;;;;10341680;28;20211;-67
2021/10/20 18:10:08;;;;;;;8.20;3.00;;;;;;;;;;10288959;28;20136;-68
2021/10/20 18:15:07;;;;;;;6.00;2.85;;;;;;;;;;10321669;28;20525;-64
2021/10/20 18:20:07;;;;;;;4.88;2.47;;;;;;;;;;10288558;28;20573;-64
2021/10/20 18:25:06;;;;;;;5.63;2.60;;;;;;;;;;10312996;28;20044;-63
2021/10/20 18:30:05;;;;;;;9.52;4.25;;;;;;;;;;10285330;28;20044;-65
2021/10/20 18:35:03;;;;;;;3.78;2.50;;;;;;;;;;10322363;28;20264;-62
2021/10/20 18:40:03;;;;;;;4.95;2.97;;;;;;;;;;10333471;28;20132;-62
2021/10/20 18:45:00;;;;;;;7.93;2.65;;;;;;;;;;10288750;28;20119;-61
2021/10/20 18:49:58;;;;;;;4.13;2.40;;;;;;;;;;10286005;28;20042;-63
2021/10/20 18:54:55;;;;;;;6.45;3.15;;;;;;;;;;10321344;28;20395;-63
2021/10/20 18:59:53;;;;;;;6.53;2.60;;;;;;;;;;10292274;28;20033;-62
2021/10/20 19:04:50;;;;;;;6.20;2.80;;;;;;;;;;10289611;28;20489;-62
2021/10/20 19:09:48;;;;;;;5.73;2.57;;;;;;;;;;10322037;28;20509;-61
2021/10/20 19:14:46;;;;;;;6.33;2.67;;;;;;;;;;10300094;28;20041;-65
2021/10/20 19:19:44;;;;;;;4.35;2.08;;;;;;;;;;10322048;28;20043;-63
2021/10/20 19:24:43;;;;;;;7.70;2.40;;;;;;;;;;10293292;28;20398;-63
2021/10/20 19:29:41;;;;;;;7.37;2.90;;;;;;;;;;10324123;28;20186;-62
2021/10/20 19:34:38;;;;;;;7.68;2.30;;;;;;;;;;10321813;28;20029;-65
2021/10/20 19:39:37;;;;;;;2.77;1.93;;;;;;;;;;10330726;28;20037;-62
2021/10/20 19:44:34;;;;;;;4.53;1.83;;;;;;;;;;10333016;28;20040;-62
2021/10/20 19:49:32;;;;;;;4.03;2.13;;;;;;;;;;10325324;28;20043;-63
2021/10/20 19:54:29;;;;;;;3.23;1.80;;;;;;;;;;10321686;28;20051;-66
2021/10/20 19:59:27;;;;;;;1.17;0.80;;;;;;;;;;10330865;28;20122;-64
2021/10/20 20:04:25;;;;;;;1.88;0.90;;;;;;;;;;10304702;28;20033;-61
2021/10/20 20:09:22;;;;;;;0.67;0.63;;;;;;;;;;10318031;28;20403;-64
2021/10/20 20:14:20;;;;;;;2.07;0.77;;;;;;;;;;10325055;28;20494;-61
2021/10/20 20:19:20;;;;;;;0.73;0.73;;;;;;;;;;10320393;28;20038;-63
2021/10/20 20:24:19;;;;;;;1.90;0.63;;;;;;;;;;10327684;28;20059;-63
2021/10/20 20:29:17;;;;;;;3.88;1.95;;;;;;;;;;10331120;28;20503;-63
2021/10/20 20:34:14;;;;;;;3.13;1.07;;;;;;;;;;10329918;28;20427;-62
2021/10/20 20:39:12;;;;;;;6.20;1.40;;;;;;;;;;10329626;28;20094;-65
2021/10/20 20:44:09;;;;;;;1.13;0.60;;;;;;;;;;10321508;28;20033;-62
2021/10/20 20:49:06;;;;;;;3.70;1.30;;;;;;;;;;10314158;28;20502;-65
2021/10/20 20:54:05;;;;;;;11.57;1.57;;;;;;;;;;10328481;28;20407;-62
2021/10/20 20:59:03;;;;;;;3.17;0.85;;;;;;;;;;10325211;28;20090;-61
2021/10/20 21:04:00;;;;;;;3.17;1.20;;;;;;;;;;10325644;28;20435;-63
2021/10/20 21:08:57;;;;;;;4.10;0.70;;;;;;;;;;10319273;28;20065;-65
2021/10/20 21:13:55;;;;;;;2.93;1.00;;;;;;;;;;10325450;28;20182;-63
2021/10/20 21:18:53;;;;;;;2.27;1.20;;;;;;;;;;10301776;28;20044;-64
2021/10/20 21:23:51;;;;;;;7.05;1.00;;;;;;;;;;10300034;28;20044;-62
2021/10/20 21:28:48;;;;;;;7.47;1.00;;;;;;;;;;10305240;28;20033;-63
2021/10/20 21:33:46;;;;;;;3.63;0.83;;;;;;;;;;10285051;28;20034;-64
2021/10/20 21:38:44;;;;;;;6.93;1.20;;;;;;;;;;10279433;28;20124;-65
2021/10/20 21:43:47;;;;;;;1.48;0.70;;;;;;;;;;10285849;28;20045;-63
2021/10/20 21:48:45;;;;;;;6.70;0.90;;;;;;;;;;10306513;28;20432;-63
2021/10/20 21:53:43;;;;;;;6.45;1.40;;;;;;;;;;10299375;28;20083;-62
2021/10/20 21:58:41;;;;;;;;;;;;;;;;;;10268639;28;20034;-63
2021/10/20 22:03:39;;;;;;;1.95;0.50;;;;;;;;;;10294376;28;20411;-63
2021/10/20 22:08:37;;;;;;;1.00;0.90;;;;;;;;;;10313396;28;20423;-66
2021/10/20 22:13:34;;;;;;;2.50;1.17;;;;;;;;;;10313880;28;20153;-63
2021/10/20 22:18:32;;;;;;;2.77;1.20;;;;;;;;;;10311016;28;20499;-63
2021/10/20 22:23:29;;;;;;;7.53;1.50;;;;;;;;;;10316358;28;20036;-64
2021/10/20 22:28:27;;;;;;;14.35;1.85;;;;;;;;;;10311559;28;20051;-63
2021/10/20 22:33:24;;;;;;;3.30;1.50;;;;;;;;;;10313197;28;20113;-64
2021/10/20 22:38:22;;;;;;;5.37;1.50;;;;;;;;;;10312964;28;20036;-62
2021/10/20 22:43:20;;;;;;;6.73;1.10;;;;;;;;;;10315221;28;20496;-64
2021/10/20 22:48:17;;;;;;;6.00;1.07;;;;;;;;;;10290246;28;20450;-64
2021/10/20 22:53:14;;;;;;;3.63;0.70;;;;;;;;;;10303894;28;20406;-64
2021/10/20 22:58:12;;;;;;;3.80;1.10;;;;;;;;;;10318794;28;20038;-63
2021/10/20 23:03:12;;;;;;;4.57;1.03;;;;;;;;;;10307964;28;20037;-64
2021/10/20 23:08:10;;;;;;;7.97;1.77;;;;;;;;;;10338259;28;20470;-67
2021/10/20 23:13:07;;;;;;;3.40;1.40;;;;;;;;;;10325868;28;20084;-65
2021/10/20 23:18:05;;;;;;;13.80;2.80;;;;;;;;;;10307505;28;20041;-65
2021/10/20 23:23:02;;;;;;;5.30;0.90;;;;;;;;;;10334741;28;20125;-62
2021/10/20 23:28:00;;;;;;;13.70;3.23;;;;;;;;;;10308309;28;20502;-64
2021/10/20 23:32:58;;;;;;;7.13;0.87;;;;;;;;;;10338576;28;20129;-64
2021/10/20 23:37:55;;;;;;;6.27;1.30;;;;;;;;;;10300810;28;20273;-63
2021/10/20 23:42:53;;;;;;;8.90;1.70;;;;;;;;;;10294619;28;20036;-62
2021/10/20 23:47:50;;;;;;;12.50;2.67;;;;;;;;;;10341710;28;20394;-65
2021/10/20 23:52:47;;;;;;;6.50;1.77;;;;;;;;;;10297612;28;20480;-62
2021/10/20 23:57:45;;;;;;;3.23;1.03;;;;;;;;;;10310051;28;20045;-64
